sensor_id;sensor_type;location;lat;lon;timestamp;P1;durP1;ratioP1;P2;durP2;ratioP2
73120;SDS011;61307;49.628;-1.624;2023-08-06T00:02:50;10.75;;;3.30;;
73120;SDS011;61307;49.628;-1.624;2023-08-06T00:05:44;11.75;;;3.70;;
73120;SDS011;61307;49.628;-1.624;2023-08-06T00:19:12;10.65;;;3.15;;
73120;SDS011;61307;49.628;-1.624;2023-08-06T00:21:40;12.88;;;3.33;;
73120;SDS011;61307;49.628;-1.624;2023-08-06T00:24:20;15.25;;;3.70;;
73120;SDS011;61307;49.628;-1.624;2023-08-06T00:43:39;11.25;;;3.40;;
73120;SDS011;61307;49.628;-1.624;2023-08-06T01:09:30;15.93;;;3.90;;
73120;SDS011;61307;49.628;-1.624;2023-08-06T01:12:16;9.23;;;3.45;;
73120;SDS011;61307;49.628;-1.624;2023-08-06T01:14:53;12.07;;;3.22;;
73120;SDS011;61307;49.628;-1.624;2023-08-06T01:17:28;8.30;;;3.40;;
73120;SDS011;61307;49.628;-1.624;2023-08-06T01:23:28;9.82;;;2.83;;
73120;SDS011;61307;49.628;-1.624;2023-08-06T01:26:02;7.55;;;2.83;;
73120;SDS011;61307;49.628;-1.624;2023-08-06T01:28:40;9.38;;;3.10;;
73120;SDS011;61307;49.628;-1.624;2023-08-06T01:31:15;10.18;;;3.10;;
73120;SDS011;61307;49.628;-1.624;2023-08-06T01:37:27;11.50;;;3.20;;
73120;SDS011;61307;49.628;-1.624;2023-08-06T01:39:56;10.73;;;3.17;;
73120;SDS011;61307;49.628;-1.624;2023-08-06T01:42:24;10.57;;;2.92;;
73120;SDS011;61307;49.628;-1.624;2023-08-06T01:44:51;12.57;;;3.20;;
73120;SDS011;61307;49.628;-1.624;2023-08-06T01:47:19;10.18;;;3.03;;
73120;SDS011;61307;49.628;-1.624;2023-08-06T01:49:46;11.23;;;3.58;;
73120;SDS011;61307;49.628;-1.624;2023-08-06T02:04:52;7.95;;;3.05;;
73120;SDS011;61307;49.628;-1.624;2023-08-06T02:07:52;10.00;;;2.92;;
73120;SDS011;61307;49.628;-1.624;2023-08-06T02:10:30;10.27;;;2.97;;
73120;SDS011;61307;49.628;-1.624;2023-08-06T02:26:06;8.73;;;3.00;;
73120;SDS011;61307;49.628;-1.624;2023-08-06T02:28:47;11.50;;;3.25;;
73120;SDS011;61307;49.628;-1.624;2023-08-06T02:35:05;8.75;;;3.25;;
73120;SDS011;61307;49.628;-1.624;2023-08-06T02:37:33;6.45;;;2.47;;
73120;SDS011;61307;49.628;-1.624;2023-08-06T02:40:17;7.53;;;2.55;;
73120;SDS011;61307;49.628;-1.624;2023-08-06T02:43:01;11.48;;;3.05;;
73120;SDS011;61307;49.628;-1.624;2023-08-06T02:45:28;10.32;;;2.72;;
73120;SDS011;61307;49.628;-1.624;2023-08-06T02:47:56;9.10;;;2.83;;
73120;SDS011;61307;49.628;-1.624;2023-08-06T02:53:25;7.50;;;2.33;;
73120;SDS011;61307;49.628;-1.624;2023-08-06T02:55:54;12.00;;;2.90;;
73120;SDS011;61307;49.628;-1.624;2023-08-06T03:02:05;7.95;;;2.80;;
73120;SDS011;61307;49.628;-1.624;2023-08-06T03:05:00;7.28;;;3.00;;
73120;SDS011;61307;49.628;-1.624;2023-08-06T03:07:29;11.07;;;3.03;;
73120;SDS011;61307;49.628;-1.624;2023-08-06T03:09:56;9.82;;;2.70;;
73120;SDS011;61307;49.628;-1.624;2023-08-06T03:12:27;10.50;;;2.95;;
73120;SDS011;61307;49.628;-1.624;2023-08-06T03:21:15;8.50;;;2.42;;
73120;SDS011;61307;49.628;-1.624;2023-08-06T03:23:42;9.02;;;2.50;;
73120;SDS011;61307;49.628;-1.624;2023-08-06T03:29:34;8.82;;;2.83;;
73120;SDS011;61307;49.628;-1.624;2023-08-06T03:32:02;9.93;;;2.47;;
73120;SDS011;61307;49.628;-1.624;2023-08-06T03:34:30;7.13;;;2.53;;
73120;SDS011;61307;49.628;-1.624;2023-08-06T03:36:57;9.60;;;2.70;;
73120;SDS011;61307;49.628;-1.624;2023-08-06T03:39:25;10.23;;;2.92;;
73120;SDS011;61307;49.628;-1.624;2023-08-06T03:41:53;10.50;;;3.50;;
73120;SDS011;61307;49.628;-1.624;2023-08-06T03:44:20;7.45;;;2.60;;
73120;SDS011;61307;49.628;-1.624;2023-08-06T04:00:06;9.73;;;2.67;;
73120;SDS011;61307;49.628;-1.624;2023-08-06T04:02:34;6.50;;;2.70;;
73120;SDS011;61307;49.628;-1.624;2023-08-06T04:08:37;6.90;;;2.10;;
73120;SDS011;61307;49.628;-1.624;2023-08-06T04:11:20;6.55;;;2.33;;
73120;SDS011;61307;49.628;-1.624;2023-08-06T04:17:23;4.63;;;2.15;;
73120;SDS011;61307;49.628;-1.624;2023-08-06T04:20:06;7.22;;;2.35;;
73120;SDS011;61307;49.628;-1.624;2023-08-06T04:22:44;9.90;;;2.55;;
73120;SDS011;61307;49.628;-1.624;2023-08-06T04:25:11;5.47;;;2.10;;
73120;SDS011;61307;49.628;-1.624;2023-08-06T04:27:39;5.28;;;2.30;;
73120;SDS011;61307;49.628;-1.624;2023-08-06T04:30:07;4.75;;;1.98;;
73120;SDS011;61307;49.628;-1.624;2023-08-06T04:32:38;5.22;;;2.50;;
73120;SDS011;61307;49.628;-1.624;2023-08-06T04:35:06;6.05;;;2.00;;
73120;SDS011;61307;49.628;-1.624;2023-08-06T04:37:44;6.00;;;2.35;;
73120;SDS011;61307;49.628;-1.624;2023-08-06T04:40:27;6.10;;;2.35;;
73120;SDS011;61307;49.628;-1.624;2023-08-06T04:42:54;6.82;;;2.13;;
73120;SDS011;61307;49.628;-1.624;2023-08-06T04:49:00;7.40;;;2.10;;
73120;SDS011;61307;49.628;-1.624;2023-08-06T04:51:28;4.70;;;2.00;;
73120;SDS011;61307;49.628;-1.624;2023-08-06T05:00:00;3.53;;;2.00;;
73120;SDS011;61307;49.628;-1.624;2023-08-06T05:16:05;3.42;;;2.05;;
73120;SDS011;61307;49.628;-1.624;2023-08-06T05:18:33;4.32;;;2.20;;
73120;SDS011;61307;49.628;-1.624;2023-08-06T05:21:03;7.57;;;2.30;;
73120;SDS011;61307;49.628;-1.624;2023-08-06T05:23:45;5.95;;;2.05;;
73120;SDS011;61307;49.628;-1.624;2023-08-06T05:29:28;9.45;;;1.98;;
73120;SDS011;61307;49.628;-1.624;2023-08-06T05:32:22;7.68;;;2.38;;
73120;SDS011;61307;49.628;-1.624;2023-08-06T05:34:50;10.73;;;2.35;;
73120;SDS011;61307;49.628;-1.624;2023-08-06T05:40:15;6.53;;;2.40;;
73120;SDS011;61307;49.628;-1.624;2023-08-06T05:42:51;7.13;;;2.25;;
73120;SDS011;61307;49.628;-1.624;2023-08-06T05:45:36;6.32;;;2.30;;
73120;SDS011;61307;49.628;-1.624;2023-08-06T05:51:57;8.88;;;2.22;;
73120;SDS011;61307;49.628;-1.624;2023-08-06T05:54:33;7.03;;;2.35;;
73120;SDS011;61307;49.628;-1.624;2023-08-06T05:59:47;6.47;;;2.22;;
73120;SDS011;61307;49.628;-1.624;2023-08-06T06:02:14;7.28;;;2.63;;
73120;SDS011;61307;49.628;-1.624;2023-08-06T06:08:21;5.50;;;2.22;;
73120;SDS011;61307;49.628;-1.624;2023-08-06T06:14:20;5.47;;;2.40;;
73120;SDS011;61307;49.628;-1.624;2023-08-06T06:16:48;8.20;;;2.20;;
73120;SDS011;61307;49.628;-1.624;2023-08-06T06:19:25;7.32;;;2.17;;
73120;SDS011;61307;49.628;-1.624;2023-08-06T06:25:25;9.95;;;2.85;;
73120;SDS011;61307;49.628;-1.624;2023-08-06T06:27:52;11.93;;;2.75;;
73120;SDS011;61307;49.628;-1.624;2023-08-06T06:30:21;5.15;;;2.20;;
73120;SDS011;61307;49.628;-1.624;2023-08-06T06:36:06;5.25;;;2.40;;
73120;SDS011;61307;49.628;-1.624;2023-08-06T06:38:47;7.28;;;2.53;;
73120;SDS011;61307;49.628;-1.624;2023-08-06T06:41:48;9.25;;;2.42;;
73120;SDS011;61307;49.628;-1.624;2023-08-06T06:44:15;8.40;;;2.30;;
73120;SDS011;61307;49.628;-1.624;2023-08-06T06:46:47;8.25;;;2.03;;
73120;SDS011;61307;49.628;-1.624;2023-08-06T06:49:16;9.27;;;3.20;;
73120;SDS011;61307;49.628;-1.624;2023-08-06T06:51:54;9.43;;;2.50;;
73120;SDS011;61307;49.628;-1.624;2023-08-06T06:54:22;8.07;;;2.30;;
73120;SDS011;61307;49.628;-1.624;2023-08-06T06:56:51;7.07;;;2.45;;
73120;SDS011;61307;49.628;-1.624;2023-08-06T06:59:19;9.63;;;2.47;;
73120;SDS011;61307;49.628;-1.624;2023-08-06T07:14:25;5.65;;;2.30;;
73120;SDS011;61307;49.628;-1.624;2023-08-06T07:20:47;4.70;;;2.15;;
73120;SDS011;61307;49.628;-1.624;2023-08-06T07:23:15;10.38;;;2.40;;
73120;SDS011;61307;49.628;-1.624;2023-08-06T07:29:04;4.72;;;1.92;;
73120;SDS011;61307;49.628;-1.624;2023-08-06T07:41:52;5.25;;;2.30;;
73120;SDS011;61307;49.628;-1.624;2023-08-06T07:47:10;7.82;;;2.00;;
73120;SDS011;61307;49.628;-1.624;2023-08-06T07:49:37;6.72;;;2.40;;
73120;SDS011;61307;49.628;-1.624;2023-08-06T07:52:05;7.45;;;2.45;;
73120;SDS011;61307;49.628;-1.624;2023-08-06T08:01:41;9.00;;;2.53;;
73120;SDS011;61307;49.628;-1.624;2023-08-06T08:04:08;8.70;;;2.42;;
73120;SDS011;61307;49.628;-1.624;2023-08-06T08:12:39;6.97;;;2.20;;
73120;SDS011;61307;49.628;-1.624;2023-08-06T08:15:16;8.48;;;2.20;;
73120;SDS011;61307;49.628;-1.624;2023-08-06T08:17:56;5.70;;;1.95;;
73120;SDS011;61307;49.628;-1.624;2023-08-06T08:20:23;7.03;;;1.95;;
73120;SDS011;61307;49.628;-1.624;2023-08-06T08:22:52;6.55;;;2.25;;
73120;SDS011;61307;49.628;-1.624;2023-08-06T08:25:30;5.80;;;2.67;;
73120;SDS011;61307;49.628;-1.624;2023-08-06T08:27:59;5.28;;;2.15;;
73120;SDS011;61307;49.628;-1.624;2023-08-06T08:30:27;4.80;;;1.80;;
73120;SDS011;61307;49.628;-1.624;2023-08-06T08:32:56;6.25;;;2.28;;
73120;SDS011;61307;49.628;-1.624;2023-08-06T08:40:33;7.28;;;1.98;;
73120;SDS011;61307;49.628;-1.624;2023-08-06T08:41:52;5.90;;;1.88;;
73120;SDS011;61307;49.628;-1.624;2023-08-06T08:44:33;7.03;;;1.80;;
73120;SDS011;61307;49.628;-1.624;2023-08-06T08:55:00;6.82;;;1.92;;
73120;SDS011;61307;49.628;-1.624;2023-08-06T08:56:48;6.75;;;2.00;;
73120;SDS011;61307;49.628;-1.624;2023-08-06T08:59:15;7.43;;;2.03;;
73120;SDS011;61307;49.628;-1.624;2023-08-06T09:01:56;4.20;;;1.65;;
73120;SDS011;61307;49.628;-1.624;2023-08-06T09:04:40;4.95;;;1.80;;
73120;SDS011;61307;49.628;-1.624;2023-08-06T09:10:21;5.13;;;1.88;;
73120;SDS011;61307;49.628;-1.624;2023-08-06T09:12:52;6.85;;;1.85;;
73120;SDS011;61307;49.628;-1.624;2023-08-06T09:25:59;4.20;;;1.92;;
73120;SDS011;61307;49.628;-1.624;2023-08-06T09:35:06;3.78;;;1.60;;
73120;SDS011;61307;49.628;-1.624;2023-08-06T09:48:03;8.77;;;1.73;;
73120;SDS011;61307;49.628;-1.624;2023-08-06T09:50:32;8.50;;;1.88;;
73120;SDS011;61307;49.628;-1.624;2023-08-06T09:53:01;4.03;;;1.67;;
73120;SDS011;61307;49.628;-1.624;2023-08-06T09:58:21;9.00;;;1.80;;
73120;SDS011;61307;49.628;-1.624;2023-08-06T10:04:36;7.40;;;1.85;;
73120;SDS011;61307;49.628;-1.624;2023-08-06T10:07:19;3.13;;;1.60;;
73120;SDS011;61307;49.628;-1.624;2023-08-06T10:13:19;5.38;;;1.45;;
73120;SDS011;61307;49.628;-1.624;2023-08-06T10:17:14;4.15;;;1.58;;
73120;SDS011;61307;49.628;-1.624;2023-08-06T10:19:19;6.25;;;1.90;;
73120;SDS011;61307;49.628;-1.624;2023-08-06T10:38:25;5.28;;;1.50;;
73120;SDS011;61307;49.628;-1.624;2023-08-06T10:41:00;2.03;;;1.48;;
73120;SDS011;61307;49.628;-1.624;2023-08-06T10:43:29;7.93;;;1.88;;
73120;SDS011;61307;49.628;-1.624;2023-08-06T10:49:23;6.03;;;1.50;;
73120;SDS011;61307;49.628;-1.624;2023-08-06T10:51:51;3.10;;;1.40;;
73120;SDS011;61307;49.628;-1.624;2023-08-06T10:54:19;2.67;;;1.30;;
73120;SDS011;61307;49.628;-1.624;2023-08-06T10:56:46;7.35;;;2.75;;
73120;SDS011;61307;49.628;-1.624;2023-08-06T10:59:14;2.88;;;1.15;;
73120;SDS011;61307;49.628;-1.624;2023-08-06T11:01:57;4.43;;;1.60;;
73120;SDS011;61307;49.628;-1.624;2023-08-06T11:07:37;5.00;;;1.65;;
73120;SDS011;61307;49.628;-1.624;2023-08-06T11:15:28;2.53;;;1.20;;
73120;SDS011;61307;49.628;-1.624;2023-08-06T11:18:28;3.15;;;1.27;;
73120;SDS011;61307;49.628;-1.624;2023-08-06T11:24:38;3.92;;;1.30;;
73120;SDS011;61307;49.628;-1.624;2023-08-06T11:27:10;3.55;;;1.63;;
73120;SDS011;61307;49.628;-1.624;2023-08-06T11:29:41;2.95;;;1.10;;
73120;SDS011;61307;49.628;-1.624;2023-08-06T11:38:38;3.22;;;1.35;;
73120;SDS011;61307;49.628;-1.624;2023-08-06T11:47:55;3.92;;;1.40;;
73120;SDS011;61307;49.628;-1.624;2023-08-06T11:53:40;3.05;;;1.60;;
73120;SDS011;61307;49.628;-1.624;2023-08-06T11:56:08;2.67;;;1.08;;
73120;SDS011;61307;49.628;-1.624;2023-08-06T11:58:36;3.85;;;1.30;;
73120;SDS011;61307;49.628;-1.624;2023-08-06T12:01:03;4.63;;;1.33;;
73120;SDS011;61307;49.628;-1.624;2023-08-06T12:10:24;3.60;;;1.30;;
73120;SDS011;61307;49.628;-1.624;2023-08-06T12:22:59;3.30;;;1.40;;
73120;SDS011;61307;49.628;-1.624;2023-08-06T12:25:28;2.78;;;1.35;;
73120;SDS011;61307;49.628;-1.624;2023-08-06T12:28:11;4.10;;;1.75;;
73120;SDS011;61307;49.628;-1.624;2023-08-06T12:30:46;3.33;;;1.30;;
73120;SDS011;61307;49.628;-1.624;2023-08-06T12:33:14;2.13;;;1.10;;
73120;SDS011;61307;49.628;-1.624;2023-08-06T12:35:45;4.47;;;1.27;;
73120;SDS011;61307;49.628;-1.624;2023-08-06T12:41:46;3.67;;;1.60;;
73120;SDS011;61307;49.628;-1.624;2023-08-06T12:44:38;5.57;;;1.23;;
73120;SDS011;61307;49.628;-1.624;2023-08-06T12:47:15;3.05;;;1.10;;
73120;SDS011;61307;49.628;-1.624;2023-08-06T12:49:42;3.50;;;1.55;;
73120;SDS011;61307;49.628;-1.624;2023-08-06T12:52:10;2.40;;;1.30;;
73120;SDS011;61307;49.628;-1.624;2023-08-06T12:57:56;2.65;;;1.20;;
73120;SDS011;61307;49.628;-1.624;2023-08-06T13:00:25;4.18;;;1.30;;
73120;SDS011;61307;49.628;-1.624;2023-08-06T13:02:59;2.17;;;1.38;;
73120;SDS011;61307;49.628;-1.624;2023-08-06T13:05:40;3.92;;;1.17;;
73120;SDS011;61307;49.628;-1.624;2023-08-06T13:08:08;3.28;;;1.25;;
73120;SDS011;61307;49.628;-1.624;2023-08-06T13:10:38;5.85;;;1.30;;
73120;SDS011;61307;49.628;-1.624;2023-08-06T13:13:18;3.70;;;1.25;;
73120;SDS011;61307;49.628;-1.624;2023-08-06T13:15:45;5.18;;;1.45;;
73120;SDS011;61307;49.628;-1.624;2023-08-06T13:22:05;4.55;;;1.25;;
73120;SDS011;61307;49.628;-1.624;2023-08-06T13:24:41;3.00;;;1.08;;
73120;SDS011;61307;49.628;-1.624;2023-08-06T13:30:52;6.68;;;1.50;;
73120;SDS011;61307;49.628;-1.624;2023-08-06T13:40:07;2.15;;;1.42;;
73120;SDS011;61307;49.628;-1.624;2023-08-06T13:49:27;6.28;;;1.45;;
73120;SDS011;61307;49.628;-1.624;2023-08-06T13:51:54;5.35;;;1.67;;
73120;SDS011;61307;49.628;-1.624;2023-08-06T13:54:41;4.72;;;1.27;;
73120;SDS011;61307;49.628;-1.624;2023-08-06T13:57:08;4.28;;;1.48;;
73120;SDS011;61307;49.628;-1.624;2023-08-06T13:59:35;2.55;;;1.20;;
73120;SDS011;61307;49.628;-1.624;2023-08-06T14:03:32;5.18;;;1.30;;
73120;SDS011;61307;49.628;-1.624;2023-08-06T14:08:38;1.83;;;1.13;;
73120;SDS011;61307;49.628;-1.624;2023-08-06T14:11:06;3.88;;;1.25;;
73120;SDS011;61307;49.628;-1.624;2023-08-06T14:20:09;4.50;;;1.27;;
73120;SDS011;61307;49.628;-1.624;2023-08-06T14:23:02;4.60;;;1.30;;
73120;SDS011;61307;49.628;-1.624;2023-08-06T14:25:44;3.13;;;1.60;;
73120;SDS011;61307;49.628;-1.624;2023-08-06T14:28:11;3.92;;;1.63;;
73120;SDS011;61307;49.628;-1.624;2023-08-06T14:37:49;2.72;;;1.70;;
73120;SDS011;61307;49.628;-1.624;2023-08-06T14:40:17;2.85;;;1.60;;
73120;SDS011;61307;49.628;-1.624;2023-08-06T14:42:59;3.72;;;1.45;;
73120;SDS011;61307;49.628;-1.624;2023-08-06T14:45:45;2.75;;;1.30;;
73120;SDS011;61307;49.628;-1.624;2023-08-06T14:54:24;6.80;;;1.90;;
73120;SDS011;61307;49.628;-1.624;2023-08-06T14:56:53;5.38;;;1.58;;
73120;SDS011;61307;49.628;-1.624;2023-08-06T14:59:26;7.32;;;1.65;;
73120;SDS011;61307;49.628;-1.624;2023-08-06T15:01:53;4.07;;;2.20;;
73120;SDS011;61307;49.628;-1.624;2023-08-06T15:04:21;3.17;;;1.80;;
73120;SDS011;61307;49.628;-1.624;2023-08-06T15:06:49;8.00;;;1.60;;
73120;SDS011;61307;49.628;-1.624;2023-08-06T15:09:18;6.32;;;1.95;;
73120;SDS011;61307;49.628;-1.624;2023-08-06T15:11:52;3.83;;;1.98;;
73120;SDS011;61307;49.628;-1.624;2023-08-06T15:14:22;4.85;;;1.80;;
73120;SDS011;61307;49.628;-1.624;2023-08-06T15:16:49;4.53;;;1.40;;
73120;SDS011;61307;49.628;-1.624;2023-08-06T15:19:18;7.70;;;1.60;;
73120;SDS011;61307;49.628;-1.624;2023-08-06T15:21:45;3.55;;;1.73;;
73120;SDS011;61307;49.628;-1.624;2023-08-06T15:24:14;7.45;;;1.85;;
73120;SDS011;61307;49.628;-1.624;2023-08-06T15:26:42;4.88;;;1.63;;
73120;SDS011;61307;49.628;-1.624;2023-08-06T15:31:53;3.90;;;1.67;;
73120;SDS011;61307;49.628;-1.624;2023-08-06T15:34:26;4.60;;;1.60;;
73120;SDS011;61307;49.628;-1.624;2023-08-06T15:40:29;4.78;;;1.90;;
73120;SDS011;61307;49.628;-1.624;2023-08-06T15:43:12;4.80;;;1.55;;
73120;SDS011;61307;49.628;-1.624;2023-08-06T15:45:55;6.53;;;1.85;;
73120;SDS011;61307;49.628;-1.624;2023-08-06T15:48:35;4.18;;;1.85;;
73120;SDS011;61307;49.628;-1.624;2023-08-06T15:54:18;7.07;;;1.70;;
73120;SDS011;61307;49.628;-1.624;2023-08-06T15:56:46;6.30;;;1.77;;
73120;SDS011;61307;49.628;-1.624;2023-08-06T15:59:34;6.93;;;2.25;;
73120;SDS011;61307;49.628;-1.624;2023-08-06T16:09:03;5.90;;;1.88;;
73120;SDS011;61307;49.628;-1.624;2023-08-06T16:14:34;6.43;;;1.88;;
73120;SDS011;61307;49.628;-1.624;2023-08-06T16:17:14;4.07;;;1.55;;
73120;SDS011;61307;49.628;-1.624;2023-08-06T16:19:43;5.05;;;1.70;;
73120;SDS011;61307;49.628;-1.624;2023-08-06T16:22:10;5.60;;;2.28;;
73120;SDS011;61307;49.628;-1.624;2023-08-06T16:27:18;6.18;;;1.98;;
73120;SDS011;61307;49.628;-1.624;2023-08-06T16:29:46;5.30;;;2.05;;
73120;SDS011;61307;49.628;-1.624;2023-08-06T16:33:16;6.65;;;2.03;;
73120;SDS011;61307;49.628;-1.624;2023-08-06T16:35:21;5.97;;;2.03;;
73120;SDS011;61307;49.628;-1.624;2023-08-06T16:44:52;7.13;;;2.17;;
73120;SDS011;61307;49.628;-1.624;2023-08-06T16:47:20;6.70;;;1.90;;
73120;SDS011;61307;49.628;-1.624;2023-08-06T16:49:47;5.35;;;2.05;;
73120;SDS011;61307;49.628;-1.624;2023-08-06T16:52:15;6.93;;;2.22;;
73120;SDS011;61307;49.628;-1.624;2023-08-06T16:54:43;7.20;;;2.10;;
73120;SDS011;61307;49.628;-1.624;2023-08-06T16:58:33;6.88;;;2.15;;
73120;SDS011;61307;49.628;-1.624;2023-08-06T17:00:57;8.98;;;2.10;;
73120;SDS011;61307;49.628;-1.624;2023-08-06T17:03:29;8.35;;;2.28;;
73120;SDS011;61307;49.628;-1.624;2023-08-06T17:06:08;8.38;;;2.08;;
73120;SDS011;61307;49.628;-1.624;2023-08-06T17:22:37;4.53;;;1.95;;
73120;SDS011;61307;49.628;-1.624;2023-08-06T17:25:08;4.68;;;2.05;;
73120;SDS011;61307;49.628;-1.624;2023-08-06T17:27:46;7.10;;;2.20;;
73120;SDS011;61307;49.628;-1.624;2023-08-06T17:30:14;7.22;;;2.17;;
73120;SDS011;61307;49.628;-1.624;2023-08-06T17:32:41;10.43;;;2.22;;
73120;SDS011;61307;49.628;-1.624;2023-08-06T17:35:20;8.73;;;2.35;;
73120;SDS011;61307;49.628;-1.624;2023-08-06T17:37:58;6.60;;;2.17;;
73120;SDS011;61307;49.628;-1.624;2023-08-06T17:43:50;12.65;;;3.50;;
73120;SDS011;61307;49.628;-1.624;2023-08-06T17:46:23;7.18;;;2.50;;
73120;SDS011;61307;49.628;-1.624;2023-08-06T17:48:51;7.45;;;2.47;;
73120;SDS011;61307;49.628;-1.624;2023-08-06T17:51:20;7.75;;;2.58;;
73120;SDS011;61307;49.628;-1.624;2023-08-06T17:53:49;11.25;;;2.13;;
73120;SDS011;61307;49.628;-1.624;2023-08-06T17:59:26;8.85;;;2.38;;
73120;SDS011;61307;49.628;-1.624;2023-08-06T18:01:53;7.45;;;2.40;;
73120;SDS011;61307;49.628;-1.624;2023-08-06T18:04:20;10.43;;;2.50;;
73120;SDS011;61307;49.628;-1.624;2023-08-06T18:10:20;6.90;;;2.50;;
73120;SDS011;61307;49.628;-1.624;2023-08-06T18:12:47;9.43;;;2.45;;
73120;SDS011;61307;49.628;-1.624;2023-08-06T18:15:37;4.93;;;1.85;;
73120;SDS011;61307;49.628;-1.624;2023-08-06T18:20:50;5.55;;;2.20;;
73120;SDS011;61307;49.628;-1.624;2023-08-06T18:23:18;7.53;;;2.42;;
73120;SDS011;61307;49.628;-1.624;2023-08-06T18:25:46;7.53;;;2.40;;
73120;SDS011;61307;49.628;-1.624;2023-08-06T18:28:25;6.50;;;2.20;;
73120;SDS011;61307;49.628;-1.624;2023-08-06T18:31:06;13.77;;;3.50;;
73120;SDS011;61307;49.628;-1.624;2023-08-06T18:33:33;10.57;;;2.40;;
73120;SDS011;61307;49.628;-1.624;2023-08-06T18:36:01;5.22;;;2.22;;
73120;SDS011;61307;49.628;-1.624;2023-08-06T18:42:01;7.85;;;2.28;;
73120;SDS011;61307;49.628;-1.624;2023-08-06T18:47:37;12.77;;;2.42;;
73120;SDS011;61307;49.628;-1.624;2023-08-06T18:50:05;8.80;;;2.35;;
73120;SDS011;61307;49.628;-1.624;2023-08-06T18:52:33;5.65;;;2.30;;
73120;SDS011;61307;49.628;-1.624;2023-08-06T18:55:00;6.65;;;2.03;;
73120;SDS011;61307;49.628;-1.624;2023-08-06T19:07:39;8.82;;;2.38;;
73120;SDS011;61307;49.628;-1.624;2023-08-06T19:10:07;8.27;;;2.83;;
73120;SDS011;61307;49.628;-1.624;2023-08-06T19:12:48;8.23;;;2.13;;
73120;SDS011;61307;49.628;-1.624;2023-08-06T19:15:16;10.55;;;2.75;;
73120;SDS011;61307;49.628;-1.624;2023-08-06T19:18:03;7.85;;;2.15;;
73120;SDS011;61307;49.628;-1.624;2023-08-06T19:20:41;7.22;;;2.30;;
73120;SDS011;61307;49.628;-1.624;2023-08-06T19:23:10;7.50;;;2.22;;
73120;SDS011;61307;49.628;-1.624;2023-08-06T19:28:35;10.63;;;2.22;;
73120;SDS011;61307;49.628;-1.624;2023-08-06T19:31:05;9.60;;;2.10;;
73120;SDS011;61307;49.628;-1.624;2023-08-06T19:33:32;7.55;;;2.58;;
73120;SDS011;61307;49.628;-1.624;2023-08-06T19:36:00;6.53;;;2.65;;
73120;SDS011;61307;49.628;-1.624;2023-08-06T19:38:44;9.82;;;2.10;;
73120;SDS011;61307;49.628;-1.624;2023-08-06T19:44:40;9.68;;;2.58;;
73120;SDS011;61307;49.628;-1.624;2023-08-06T19:47:07;12.38;;;3.10;;
73120;SDS011;61307;49.628;-1.624;2023-08-06T19:49:34;18.17;;;3.22;;
73120;SDS011;61307;49.628;-1.624;2023-08-06T19:52:01;11.10;;;3.10;;
73120;SDS011;61307;49.628;-1.624;2023-08-06T19:54:30;7.93;;;2.25;;
73120;SDS011;61307;49.628;-1.624;2023-08-06T19:57:11;8.75;;;2.55;;
73120;SDS011;61307;49.628;-1.624;2023-08-06T19:59:53;7.50;;;2.03;;
73120;SDS011;61307;49.628;-1.624;2023-08-06T20:02:34;9.20;;;2.35;;
73120;SDS011;61307;49.628;-1.624;2023-08-06T20:08:06;6.65;;;2.40;;
73120;SDS011;61307;49.628;-1.624;2023-08-06T20:10:35;12.63;;;2.33;;
73120;SDS011;61307;49.628;-1.624;2023-08-06T20:13:02;4.80;;;1.50;;
73120;SDS011;61307;49.628;-1.624;2023-08-06T20:15:34;9.30;;;2.60;;
73120;SDS011;61307;49.628;-1.624;2023-08-06T20:18:39;7.75;;;2.40;;
73120;SDS011;61307;49.628;-1.624;2023-08-06T20:24:22;7.35;;;2.20;;
73120;SDS011;61307;49.628;-1.624;2023-08-06T20:26:50;9.25;;;2.13;;
73120;SDS011;61307;49.628;-1.624;2023-08-06T20:32:50;11.80;;;2.72;;
73120;SDS011;61307;49.628;-1.624;2023-08-06T20:35:36;9.15;;;2.20;;
73120;SDS011;61307;49.628;-1.624;2023-08-06T20:38:04;12.07;;;2.60;;
73120;SDS011;61307;49.628;-1.624;2023-08-06T20:40:31;10.38;;;2.30;;
73120;SDS011;61307;49.628;-1.624;2023-08-06T20:43:00;6.68;;;2.20;;
73120;SDS011;61307;49.628;-1.624;2023-08-06T20:45:27;5.90;;;2.20;;
73120;SDS011;61307;49.628;-1.624;2023-08-06T20:51:42;5.75;;;2.38;;
73120;SDS011;61307;49.628;-1.624;2023-08-06T20:54:42;10.50;;;2.45;;
73120;SDS011;61307;49.628;-1.624;2023-08-06T21:00:25;8.48;;;2.03;;
73120;SDS011;61307;49.628;-1.624;2023-08-06T21:02:52;10.77;;;2.40;;
73120;SDS011;61307;49.628;-1.624;2023-08-06T21:05:20;8.05;;;2.10;;
73120;SDS011;61307;49.628;-1.624;2023-08-06T21:11:25;8.98;;;1.95;;
73120;SDS011;61307;49.628;-1.624;2023-08-06T21:14:03;8.75;;;2.78;;
73120;SDS011;61307;49.628;-1.624;2023-08-06T21:36:31;5.47;;;2.03;;
73120;SDS011;61307;49.628;-1.624;2023-08-06T21:38:58;9.13;;;2.42;;
73120;SDS011;61307;49.628;-1.624;2023-08-06T21:41:26;8.93;;;2.42;;
73120;SDS011;61307;49.628;-1.624;2023-08-06T21:43:54;8.43;;;2.13;;
73120;SDS011;61307;49.628;-1.624;2023-08-06T21:56:31;7.57;;;2.08;;
73120;SDS011;61307;49.628;-1.624;2023-08-06T22:02:37;8.70;;;2.22;;
73120;SDS011;61307;49.628;-1.624;2023-08-06T22:11:51;7.63;;;2.15;;
73120;SDS011;61307;49.628;-1.624;2023-08-06T22:14:19;9.77;;;2.38;;
73120;SDS011;61307;49.628;-1.624;2023-08-06T22:16:48;10.45;;;2.28;;
73120;SDS011;61307;49.628;-1.624;2023-08-06T22:19:15;6.20;;;1.88;;
73120;SDS011;61307;49.628;-1.624;2023-08-06T22:21:55;6.95;;;2.17;;
73120;SDS011;61307;49.628;-1.624;2023-08-06T22:24:24;8.82;;;2.00;;
73120;SDS011;61307;49.628;-1.624;2023-08-06T22:27:09;5.35;;;2.20;;
73120;SDS011;61307;49.628;-1.624;2023-08-06T22:29:36;10.10;;;2.20;;
73120;SDS011;61307;49.628;-1.624;2023-08-06T22:32:04;7.10;;;1.88;;
73120;SDS011;61307;49.628;-1.624;2023-08-06T22:34:31;8.18;;;2.08;;
73120;SDS011;61307;49.628;-1.624;2023-08-06T22:36:59;6.43;;;1.80;;
73120;SDS011;61307;49.628;-1.624;2023-08-06T22:39:27;8.02;;;1.90;;
73120;SDS011;61307;49.628;-1.624;2023-08-06T22:41:54;5.13;;;2.15;;
73120;SDS011;61307;49.628;-1.624;2023-08-06T22:44:22;6.38;;;1.98;;
73120;SDS011;61307;49.628;-1.624;2023-08-06T22:50:18;7.25;;;1.98;;
73120;SDS011;61307;49.628;-1.624;2023-08-06T22:52:46;8.35;;;2.20;;
73120;SDS011;61307;49.628;-1.624;2023-08-06T22:55:13;7.40;;;2.35;;
73120;SDS011;61307;49.628;-1.624;2023-08-06T22:57:54;5.70;;;1.80;;
73120;SDS011;61307;49.628;-1.624;2023-08-06T23:00:23;6.10;;;1.63;;
73120;SDS011;61307;49.628;-1.624;2023-08-06T23:03:07;6.68;;;1.70;;
73120;SDS011;61307;49.628;-1.624;2023-08-06T23:09:05;5.00;;;1.73;;
73120;SDS011;61307;49.628;-1.624;2023-08-06T23:11:46;6.72;;;1.83;;
73120;SDS011;61307;49.628;-1.624;2023-08-06T23:14:14;7.32;;;1.70;;
73120;SDS011;61307;49.628;-1.624;2023-08-06T23:19:42;5.50;;;1.85;;
73120;SDS011;61307;49.628;-1.624;2023-08-06T23:22:26;7.13;;;2.05;;
73120;SDS011;61307;49.628;-1.624;2023-08-06T23:24:53;8.23;;;2.30;;
73120;SDS011;61307;49.628;-1.624;2023-08-06T23:27:21;9.38;;;2.10;;
73120;SDS011;61307;49.628;-1.624;2023-08-06T23:29:48;8.50;;;1.83;;
73120;SDS011;61307;49.628;-1.624;2023-08-06T23:35:52;10.48;;;2.22;;
73120;SDS011;61307;49.628;-1.624;2023-08-06T23:45:02;7.80;;;1.98;;
73120;SDS011;61307;49.628;-1.624;2023-08-06T23:47:39;10.30;;;2.28;;
73120;SDS011;61307;49.628;-1.624;2023-08-06T23:53:11;7.55;;;2.35;;
73120;SDS011;61307;49.628;-1.624;2023-08-06T23:55:59;7.47;;;2.00;;
73120;SDS011;61307;49.628;-1.624;2023-08-06T23:58:41;9.20;;;2.17;;
